Time;durP1;ratioP1;P1;durP2;ratioP2;P2;SDS_P1;SDS_P2;PMS_P1;PMS_P2;Temp;Humidity;BMP_temperature;BMP_pressure;BME280_temperature;BME280_humidity;BME280_pressure;Samples;Min_cycle;Max_cycle;Signal;HPM_P1;HPM_P2
2023/02/04 00:00:08;;;;;;;18.08;3.05;;;9.10;99.90;;;;;;5017157;28;20479;-93
2023/02/04 00:02:34;;;;;;;21.42;4.35;;;9.10;99.90;;;;;;5029158;28;20030;-91
2023/02/04 00:05:00;;;;;;;22.35;4.32;;;9.10;99.90;;;;;;5029733;28;20102;-91
2023/02/04 00:07:26;;;;;;;21.23;4.45;;;9.10;99.90;;;;;;5030688;28;20058;-91
2023/02/04 00:09:52;;;;;;;20.50;3.40;;;9.10;99.90;;;;;;5012479;28;20030;-91
2023/02/04 00:12:17;;;;;;;25.77;4.35;;;9.10;99.90;;;;;;5014138;28;20026;-90
2023/02/04 00:14:43;;;;;;;17.15;3.33;;;9.10;99.90;;;;;;5031212;28;20106;-90
2023/02/04 00:17:11;;;;;;;16.80;4.47;;;9.10;99.90;;;;;;5017369;28;20045;-91
2023/02/04 00:19:38;;;;;;;22.92;3.58;;;9.10;99.90;;;;;;5019928;28;20033;-91
2023/02/04 00:22:05;;;;;;;20.08;3.92;;;9.10;99.90;;;;;;5018362;28;20042;-90
2023/02/04 00:24:31;;;;;;;22.83;3.70;;;9.10;99.90;;;;;;5030307;28;20036;-90
2023/02/04 00:26:57;;;;;;;20.35;3.95;;;9.10;99.90;;;;;;5027555;28;20436;-91
2023/02/04 00:29:23;;;;;;;20.35;3.63;;;9.00;99.90;;;;;;4990779;28;20057;-91
2023/02/04 00:31:50;;;;;;;18.95;3.85;;;9.00;99.90;;;;;;5013939;28;20072;-91
2023/02/04 00:34:17;;;;;;;22.98;3.70;;;9.00;99.90;;;;;;5002043;28;20046;-91
2023/02/04 00:36:43;;;;;;;20.83;3.60;;;9.00;99.90;;;;;;5027112;28;20501;-91
2023/02/04 00:39:09;;;;;;;25.17;3.78;;;9.00;99.90;;;;;;5013076;28;20034;-91
2023/02/04 00:41:35;;;;;;;19.90;3.20;;;9.00;99.90;;;;;;5014822;28;20113;-91
2023/02/04 00:44:00;;;;;;;26.20;4.18;;;9.00;99.90;;;;;;4997287;28;20544;-91
2023/02/04 00:46:26;;;;;;;25.17;3.55;;;9.00;99.90;;;;;;5006958;28;20069;-91
2023/02/04 00:48:52;;;;;;;22.23;3.30;;;9.00;99.90;;;;;;5013102;28;20486;-92
2023/02/04 00:51:18;;;;;;;24.80;4.68;;;8.90;99.90;;;;;;5012853;28;20065;-92
2023/02/04 00:53:43;;;;;;;21.75;3.90;;;8.90;99.90;;;;;;5032717;28;20033;-92
2023/02/04 00:56:10;;;;;;;14.63;3.17;;;8.90;99.90;;;;;;4991684;28;20037;-92
2023/02/04 00:58:35;;;;;;;17.85;3.88;;;8.90;99.90;;;;;;5034252;28;20021;-90
2023/02/04 01:01:01;;;;;;;23.80;4.95;;;8.90;99.90;;;;;;5032484;28;20069;-90
2023/02/04 01:03:27;;;;;;;18.10;3.75;;;8.90;99.90;;;;;;5030672;28;20037;-92
2023/02/04 01:05:52;;;;;;;17.85;3.47;;;8.80;99.90;;;;;;5021489;28;20037;-92
2023/02/04 01:08:18;;;;;;;21.40;3.35;;;8.80;99.90;;;;;;4985247;28;20053;-92
2023/02/04 01:10:44;;;;;;;24.25;4.32;;;8.80;99.90;;;;;;5001116;28;20049;-92
2023/02/04 01:13:10;;;;;;;20.23;3.90;;;8.80;99.90;;;;;;4985505;28;20042;-92
2023/02/04 01:15:35;;;;;;;21.98;3.30;;;8.80;99.90;;;;;;5017769;28;20084;-92
2023/02/04 01:18:02;;;;;;;19.77;3.15;;;8.80;99.90;;;;;;5001193;28;20486;-92
2023/02/04 01:20:28;;;;;;;19.63;3.40;;;8.70;99.90;;;;;;5017372;28;20103;-92
2023/02/04 01:22:56;;;;;;;21.00;3.20;;;8.80;99.90;;;;;;5001252;28;20544;-91
2023/02/04 01:25:22;;;;;;;19.52;3.85;;;8.70;99.90;;;;;;5001256;28;20140;-91
2023/02/04 01:27:48;;;;;;;21.30;3.55;;;8.70;99.90;;;;;;4987516;28;20072;-91
2023/02/04 01:30:15;;;;;;;18.92;3.40;;;8.70;99.90;;;;;;5022732;28;20393;-90
2023/02/04 01:32:41;;;;;;;15.65;4.07;;;8.70;99.90;;;;;;4989218;28;20034;-90
2023/02/04 01:35:07;;;;;;;21.48;4.10;;;8.70;99.90;;;;;;5004436;28;20037;-90
2023/02/04 01:37:33;;;;;;;29.80;3.88;;;8.60;99.90;;;;;;5003166;28;20036;-90
2023/02/04 01:39:59;;;;;;;17.88;3.65;;;8.70;99.90;;;;;;5017193;28;20045;-89
2023/02/04 01:42:25;;;;;;;25.42;3.92;;;8.60;99.90;;;;;;5000677;28;20125;-89
2023/02/04 01:44:51;;;;;;;21.05;3.42;;;8.60;99.90;;;;;;5000756;28;20026;-89
2023/02/04 01:47:20;;;;;;;22.17;3.42;;;8.60;99.90;;;;;;5000644;28;20037;-89
2023/02/04 01:49:51;;;;;;;23.42;4.32;;;8.60;99.90;;;;;;5017484;28;20512;-89
2023/02/04 01:52:17;;;;;;;22.88;3.80;;;8.60;99.90;;;;;;5020995;28;20084;-89
2023/02/04 01:54:43;;;;;;;19.73;3.67;;;8.60;99.90;;;;;;5021328;28;20029;-89
2023/02/04 01:57:14;;;;;;;26.52;3.97;;;8.60;99.90;;;;;;5004566;28;20132;-90
2023/02/04 01:59:45;;;;;;;25.70;4.30;;;8.60;99.90;;;;;;5021181;28;20116;-89
2023/02/04 02:02:29;;;;;;;;;;;8.60;99.90;;;;;;5021279;28;20034;-89
2023/02/04 02:04:55;;;;;;;22.83;5.00;;;8.60;99.90;;;;;;5021080;28;20325;-89
2023/02/04 02:07:21;;;;;;;19.95;3.50;;;8.50;99.90;;;;;;4988178;28;20037;-90
2023/02/04 02:09:46;;;;;;;19.15;3.65;;;8.50;99.90;;;;;;5004556;28;20124;-90
2023/02/04 02:12:12;;;;;;;16.25;3.65;;;8.50;99.90;;;;;;5004301;28;20463;-89
2023/02/04 02:14:38;;;;;;;25.52;5.22;;;8.50;99.90;;;;;;5004906;28;20491;-90
2023/02/04 02:17:03;;;;;;;23.88;4.05;;;8.50;99.90;;;;;;5004161;28;20033;-89
2023/02/04 02:19:36;;;;;;;22.73;4.30;;;8.50;99.90;;;;;;5004727;28;20478;-89
2023/02/04 02:22:09;;;;;;;26.50;3.90;;;8.50;99.90;;;;;;5020084;28;20040;-89
2023/02/04 02:24:35;;;;;;;18.38;3.70;;;8.50;99.90;;;;;;5019964;28;20120;-89
2023/02/04 02:27:06;;;;;;;27.80;4.32;;;8.50;99.90;;;;;;4987414;28;20069;-88
2023/02/04 02:29:31;;;;;;;21.40;3.67;;;8.40;99.90;;;;;;5021051;28;20033;-91
2023/02/04 02:31:58;;;;;;;18.17;3.88;;;8.40;99.90;;;;;;5003964;28;20470;-91
2023/02/04 02:34:26;;;;;;;18.45;5.20;;;8.40;99.90;;;;;;5004457;28;20033;-91
2023/02/04 02:36:51;;;;;;;17.58;4.40;;;8.40;99.90;;;;;;5020515;28;20033;-91
2023/02/04 02:39:20;;;;;;;27.45;3.58;;;8.40;99.90;;;;;;5003903;28;20053;-91
2023/02/04 02:41:46;;;;;;;26.83;4.00;;;8.40;99.90;;;;;;4988049;28;20038;-91
2023/02/04 02:44:13;;;;;;;28.67;4.03;;;8.40;99.90;;;;;;5003961;28;20391;-89
2023/02/04 02:46:39;;;;;;;22.85;3.70;;;8.30;99.90;;;;;;5019663;28;20124;-89
2023/02/04 02:49:05;;;;;;;25.10;4.45;;;8.30;99.90;;;;;;5003638;28;20119;-90
2023/02/04 02:51:31;;;;;;;20.60;3.35;;;8.30;99.90;;;;;;5019757;28;20042;-89
2023/02/04 02:53:57;;;;;;;16.98;3.45;;;8.20;99.90;;;;;;5003486;28;20040;-88
2023/02/04 02:56:23;;;;;;;22.15;3.50;;;8.20;99.90;;;;;;5020070;28;20492;-89
2023/02/04 02:58:49;;;;;;;26.17;4.25;;;8.20;99.90;;;;;;4987328;28;20029;-90
2023/02/04 03:01:15;;;;;;;24.45;3.83;;;8.20;99.90;;;;;;5019402;28;20565;-90
2023/02/04 03:03:50;;;;;;;19.10;3.17;;;8.10;99.90;;;;;;5003080;28;20051;-90
2023/02/04 03:06:20;;;;;;;18.30;3.58;;;8.10;99.90;;;;;;5003263;28;20088;-90
2023/02/04 03:08:49;;;;;;;21.75;3.88;;;8.10;99.90;;;;;;5019609;28;20106;-91
2023/02/04 03:11:15;;;;;;;21.15;4.43;;;8.10;99.90;;;;;;5019497;28;20574;-90
2023/02/04 03:13:41;;;;;;;25.02;3.17;;;8.00;99.90;;;;;;5003608;28;20064;-90
2023/02/04 03:16:07;;;;;;;20.48;3.60;;;8.00;99.90;;;;;;5003238;28;20124;-90
2023/02/04 03:18:34;;;;;;;24.33;4.57;;;8.00;99.90;;;;;;5019244;28;20367;-89
2023/02/04 03:21:03;;;;;;;23.65;3.60;;;8.00;99.90;;;;;;5019259;28;20034;-89
2023/02/04 03:23:32;;;;;;;29.45;4.15;;;8.00;99.90;;;;;;5003333;28;20034;-89
2023/02/04 03:25:57;;;;;;;29.45;4.30;;;7.90;99.90;;;;;;5003332;28;20037;-89
2023/02/04 03:28:23;;;;;;;24.13;3.80;;;7.90;99.90;;;;;;5019732;28;20060;-89
2023/02/04 03:30:54;;;;;;;22.55;4.47;;;7.90;99.90;;;;;;5019225;28;20069;-90
2023/02/04 03:33:23;;;;;;;23.45;3.50;;;7.80;99.90;;;;;;4988111;28;20520;-89
2023/02/04 03:35:48;;;;;;;27.38;3.58;;;7.80;99.90;;;;;;5019235;28;20033;-91
2023/02/04 03:38:14;;;;;;;22.35;3.83;;;7.80;99.90;;;;;;5003119;28;20401;-91
2023/02/04 03:40:40;;;;;;;24.10;4.43;;;7.80;99.90;;;;;;5019341;28;20049;-91
2023/02/04 03:43:05;;;;;;;20.80;3.58;;;7.70;99.90;;;;;;5002911;28;20502;-91
2023/02/04 03:45:31;;;;;;;18.80;4.28;;;7.70;99.90;;;;;;5003789;28;20037;-91
2023/02/04 03:47:57;;;;;;;17.20;3.92;;;7.70;99.90;;;;;;5004007;28;20033;-91
2023/02/04 03:50:22;;;;;;;17.83;3.33;;;7.70;99.90;;;;;;5004378;28;20049;-91
2023/02/04 03:52:50;;;;;;;36.53;4.32;;;7.70;99.90;;;;;;4988959;28;20033;-89
2023/02/04 03:55:16;;;;;;;22.13;5.15;;;7.60;99.90;;;;;;5022403;28;20022;-89
2023/02/04 03:57:42;;;;;;;33.75;5.03;;;7.60;99.90;;;;;;5003065;28;20382;-89
2023/02/04 04:00:08;;;;;;;16.85;3.63;;;7.50;99.90;;;;;;5019139;28;20048;-89
2023/02/04 04:02:35;;;;;;;21.52;4.40;;;7.60;99.90;;;;;;4986406;28;20494;-89
2023/02/04 04:05:00;;;;;;;19.63;3.97;;;7.50;99.90;;;;;;5019884;28;20505;-88
2023/02/04 04:07:32;;;;;;;23.80;3.67;;;7.50;99.90;;;;;;5003263;28;20033;-89
2023/02/04 04:09:57;;;;;;;26.27;3.85;;;7.50;99.90;;;;;;5002443;28;20128;-89
2023/02/04 04:12:24;;;;;;;22.77;3.67;;;7.50;99.90;;;;;;5001913;28;20123;-89
2023/02/04 04:14:50;;;;;;;24.38;3.78;;;7.40;99.90;;;;;;5015607;28;20056;-89
2023/02/04 04:17:20;;;;;;;25.08;4.28;;;7.40;99.90;;;;;;4999075;28;20026;-90
2023/02/04 04:19:48;;;;;;;25.80;4.90;;;7.40;99.90;;;;;;5000232;28;20034;-89
2023/02/04 04:22:16;;;;;;;23.33;4.22;;;7.40;99.90;;;;;;5001287;28;20392;-89
2023/02/04 04:24:42;;;;;;;23.98;3.83;;;7.30;99.90;;;;;;5000253;28;20152;-90
2023/02/04 04:27:08;;;;;;;20.65;4.15;;;7.30;99.90;;;;;;4998589;28;20109;-89
2023/02/04 04:29:33;;;;;;;29.95;5.00;;;7.30;99.90;;;;;;4983983;28;20046;-89
2023/02/04 04:31:59;;;;;;;20.35;3.78;;;7.30;99.90;;;;;;4967395;28;20491;-89
2023/02/04 04:34:27;;;;;;;22.45;3.55;;;7.30;99.90;;;;;;4984926;28;20061;-89
2023/02/04 04:36:53;;;;;;;30.00;4.57;;;7.20;99.90;;;;;;4983158;28;20037;-89
2023/02/04 04:39:19;;;;;;;29.50;4.75;;;7.20;99.90;;;;;;4966735;28;20037;-90
2023/02/04 04:41:44;;;;;;;24.08;5.07;;;7.20;99.90;;;;;;4981714;28;20046;-90
2023/02/04 04:44:10;;;;;;;29.40;5.43;;;7.20;99.90;;;;;;4965700;28;20041;-90
2023/02/04 04:46:35;;;;;;;22.63;4.05;;;7.20;99.90;;;;;;4970835;28;20033;-90
2023/02/04 04:49:01;;;;;;;20.52;3.45;;;7.20;99.90;;;;;;4998511;28;20038;-90
2023/02/04 04:51:30;;;;;;;20.80;4.03;;;7.20;99.90;;;;;;4965754;28;20041;-90
2023/02/04 04:53:56;;;;;;;24.35;4.22;;;7.20;99.90;;;;;;4966868;28;20061;-90
2023/02/04 04:56:21;;;;;;;25.90;4.60;;;7.10;99.90;;;;;;4965639;28;20042;-90
2023/02/04 04:58:47;;;;;;;25.60;3.63;;;7.10;99.90;;;;;;4965919;28;20026;-90
2023/02/04 05:01:13;;;;;;;34.63;4.93;;;7.10;99.90;;;;;;4965717;28;20030;-90
2023/02/04 05:03:38;;;;;;;23.17;4.07;;;7.10;99.90;;;;;;4981590;28;20092;-90
2023/02/04 05:06:04;;;;;;;28.67;4.47;;;7.10;99.90;;;;;;4981587;28;20439;-90
2023/02/04 05:08:30;;;;;;;25.38;4.18;;;7.10;99.90;;;;;;4981725;28;20088;-90
2023/02/04 05:10:56;;;;;;;27.73;5.25;;;7.10;99.90;;;;;;4965462;28;20073;-90
2023/02/04 05:13:24;;;;;;;24.98;4.25;;;7.10;99.90;;;;;;4982031;28;20180;-88
2023/02/04 05:15:49;;;;;;;18.88;3.90;;;7.10;99.90;;;;;;4997617;28;20053;-89
2023/02/04 05:18:15;;;;;;;26.35;4.50;;;7.00;99.90;;;;;;4981455;28;20042;-89
2023/02/04 05:20:41;;;;;;;28.65;4.47;;;7.10;99.90;;;;;;4997588;28;20030;-89
2023/02/04 05:23:06;;;;;;;23.08;4.85;;;7.10;99.90;;;;;;4965063;28;20037;-89
2023/02/04 05:25:32;;;;;;;30.48;4.63;;;7.10;99.90;;;;;;4996410;28;20490;-89
2023/02/04 05:27:58;;;;;;;24.60;3.92;;;7.10;99.90;;;;;;4997614;28;20057;-90
2023/02/04 05:30:24;;;;;;;29.65;5.45;;;7.10;99.90;;;;;;4997613;28;20034;-90
2023/02/04 05:32:52;;;;;;;27.55;4.60;;;7.10;99.90;;;;;;4989921;28;20030;-90
2023/02/04 05:35:18;;;;;;;30.13;4.57;;;7.10;99.90;;;;;;4998327;28;20034;-90
2023/02/04 05:37:44;;;;;;;23.27;4.22;;;7.10;99.90;;;;;;4997412;28;20038;-90
2023/02/04 05:40:10;;;;;;;17.85;4.10;;;7.10;99.90;;;;;;4981302;28;20050;-90
2023/02/04 05:42:37;;;;;;;20.95;4.45;;;7.10;99.90;;;;;;4970691;28;20157;-91
2023/02/04 05:45:03;;;;;;;20.95;4.65;;;7.10;99.90;;;;;;4998064;28;20168;-90
2023/02/04 05:47:30;;;;;;;34.85;5.90;;;7.10;99.90;;;;;;4998314;28;20387;-90
2023/02/04 05:49:56;;;;;;;25.10;4.60;;;7.10;99.90;;;;;;5010917;28;20038;-90
2023/02/04 05:52:23;;;;;;;22.23;4.28;;;7.10;99.90;;;;;;4966069;28;20132;-90
2023/02/04 05:54:49;;;;;;;21.40;4.30;;;7.10;99.90;;;;;;4997532;28;20040;-89
2023/02/04 05:57:15;;;;;;;23.70;4.55;;;7.10;99.90;;;;;;4997006;28;20030;-89
2023/02/04 05:59:43;;;;;;;26.08;4.50;;;7.10;99.90;;;;;;4997330;28;20062;-88
2023/02/04 06:02:08;;;;;;;27.58;5.85;;;7.10;99.90;;;;;;4965019;28;20041;-89
2023/02/04 06:04:34;;;;;;;25.42;4.78;;;7.10;99.90;;;;;;4982864;28;20068;-90
2023/02/04 06:07:00;;;;;;;24.80;4.47;;;7.10;99.90;;;;;;4990145;28;20046;-90
2023/02/04 06:09:26;;;;;;;26.40;4.78;;;7.10;99.90;;;;;;5001302;28;20017;-90
2023/02/04 06:11:51;;;;;;;32.83;5.32;;;7.10;99.90;;;;;;4985593;28;20038;-91
2023/02/04 06:14:17;;;;;;;27.10;5.20;;;7.20;99.90;;;;;;4989949;28;20438;-90
2023/02/04 06:16:43;;;;;;;25.33;4.22;;;7.20;99.90;;;;;;5015629;28;20037;-90
2023/02/04 06:19:09;;;;;;;18.92;3.50;;;7.20;99.90;;;;;;4965624;28;20030;-90
2023/02/04 06:21:35;;;;;;;22.77;4.93;;;7.10;99.90;;;;;;4964849;28;20045;-90
2023/02/04 06:24:00;;;;;;;18.52;4.10;;;7.00;99.90;;;;;;4981665;28;20475;-89
2023/02/04 06:26:26;;;;;;;19.20;4.30;;;6.90;99.90;;;;;;4996899;28;20077;-89
2023/02/04 06:28:51;;;;;;;20.33;3.70;;;6.90;99.90;;;;;;4965221;28;20487;-89
2023/02/04 06:31:17;;;;;;;19.42;4.78;;;6.80;99.90;;;;;;4980958;28;20034;-90
2023/02/04 06:33:43;;;;;;;22.65;3.97;;;6.80;99.90;;;;;;4964875;28;20361;-90
2023/02/04 06:36:08;;;;;;;16.05;3.63;;;6.80;99.90;;;;;;4965880;28;20034;-89
2023/02/04 06:38:34;;;;;;;22.40;4.32;;;6.80;99.90;;;;;;4986043;28;20044;-90
2023/02/04 06:41:00;;;;;;;18.33;3.78;;;6.80;99.90;;;;;;4971676;28;20041;-90
2023/02/04 06:43:26;;;;;;;25.35;4.78;;;6.80;99.90;;;;;;4991050;28;20133;-90
2023/02/04 06:45:52;;;;;;;17.45;3.78;;;6.80;99.90;;;;;;5009469;28;20087;-91
2023/02/04 06:48:20;;;;;;;17.75;4.07;;;6.80;99.90;;;;;;5000188;28;20026;-90
2023/02/04 06:50:46;;;;;;;23.95;4.18;;;6.80;99.90;;;;;;4997330;28;20063;-90
2023/02/04 06:53:12;;;;;;;26.92;4.22;;;6.80;99.90;;;;;;4985781;28;20030;-90
2023/02/04 06:55:38;;;;;;;18.85;3.97;;;6.80;99.90;;;;;;5007620;28;20026;-92
2023/02/04 06:58:03;;;;;;;23.95;4.47;;;6.80;99.90;;;;;;4969638;28;20041;-91
2023/02/04 07:00:32;;;;;;;16.65;3.67;;;6.90;99.90;;;;;;4986296;28;20077;-92
2023/02/04 07:02:58;;;;;;;26.00;4.88;;;6.90;99.90;;;;;;4969848;28;20132;-91
2023/02/04 07:05:24;;;;;;;24.45;5.43;;;6.90;99.90;;;;;;5001702;28;20038;-91
2023/02/04 07:07:51;;;;;;;22.70;5.20;;;6.90;99.90;;;;;;5000736;28;20042;-91
2023/02/04 07:10:19;;;;;;;29.13;5.45;;;6.90;99.90;;;;;;4984330;28;20038;-91
2023/02/04 07:12:45;;;;;;;30.90;5.65;;;6.90;99.90;;;;;;4984829;28;20395;-91
2023/02/04 07:15:11;;;;;;;27.50;6.35;;;7.00;99.90;;;;;;5001801;28;20022;-91
2023/02/04 07:17:38;;;;;;;25.17;4.50;;;6.90;99.90;;;;;;4985780;28;20064;-91
2023/02/04 07:20:05;;;;;;;22.25;4.55;;;7.00;99.90;;;;;;5003324;28;20037;-92
2023/02/04 07:22:31;;;;;;;28.75;5.97;;;7.00;99.90;;;;;;5009362;28;20045;-91
2023/02/04 07:24:56;;;;;;;30.98;6.50;;;7.00;99.90;;;;;;4972376;28;20045;-91
2023/02/04 07:27:22;;;;;;;22.05;4.97;;;7.00;99.90;;;;;;4974216;28;20053;-91
2023/02/04 07:29:48;;;;;;;28.88;5.80;;;7.00;99.90;;;;;;4985893;28;20034;-92
2023/02/04 07:32:14;;;;;;;24.27;5.63;;;7.00;99.90;;;;;;4985075;28;20041;-90
2023/02/04 07:34:40;;;;;;;30.02;5.82;;;7.00;99.90;;;;;;5001477;28;20029;-91
2023/02/04 07:37:05;;;;;;;25.05;6.03;;;7.10;99.90;;;;;;4984044;28;20030;-91
2023/02/04 07:39:31;;;;;;;32.10;5.88;;;7.10;99.90;;;;;;4983487;28;20069;-90
2023/02/04 07:41:57;;;;;;;27.15;6.10;;;7.10;99.90;;;;;;4968582;28;20038;-91
2023/02/04 07:44:22;;;;;;;36.10;6.00;;;7.10;99.90;;;;;;4969264;28;20073;-90
2023/02/04 07:46:48;;;;;;;28.83;6.07;;;7.10;99.90;;;;;;4999568;28;20038;-89
2023/02/04 07:49:14;;;;;;;29.48;6.10;;;7.20;99.90;;;;;;4968104;28;20045;-89
2023/02/04 07:51:39;;;;;;;31.63;7.25;;;7.20;99.90;;;;;;4968645;28;20149;-90
2023/02/04 07:54:05;;;;;;;36.00;6.90;;;7.20;99.90;;;;;;4967704;28;20049;-90
2023/02/04 07:56:30;;;;;;;30.65;7.53;;;7.20;99.90;;;;;;4966953;28;20064;-90
2023/02/04 07:58:56;;;;;;;26.85;6.15;;;7.20;99.90;;;;;;4983823;28;20084;-90
2023/02/04 08:01:22;;;;;;;23.33;6.13;;;7.20;99.90;;;;;;4983128;28;20505;-90
2023/02/04 08:03:47;;;;;;;32.08;6.30;;;7.30;99.90;;;;;;4983846;28;20050;-90
2023/02/04 08:06:13;;;;;;;36.40;7.28;;;7.30;99.90;;;;;;4967221;28;20038;-90
2023/02/04 08:08:39;;;;;;;29.13;5.95;;;7.30;99.90;;;;;;4967672;28;20092;-90
2023/02/04 08:11:05;;;;;;;32.28;7.35;;;7.30;99.90;;;;;;4982591;28;20056;-90
2023/02/04 08:13:30;;;;;;;28.45;6.57;;;7.30;99.90;;;;;;4982509;28;20033;-90
2023/02/04 08:15:56;;;;;;;33.17;6.47;;;7.30;99.90;;;;;;4998905;28;20030;-90
2023/02/04 08:18:24;;;;;;;27.90;6.80;;;7.30;99.90;;;;;;4986434;28;20045;-90
2023/02/04 08:20:50;;;;;;;33.58;7.63;;;7.30;99.90;;;;;;4984284;28;20029;-90
2023/02/04 08:23:17;;;;;;;29.88;6.45;;;7.30;99.90;;;;;;5003006;28;20034;-90
2023/02/04 08:25:44;;;;;;;32.63;6.75;;;7.40;99.90;;;;;;5000270;28;20103;-90
2023/02/04 08:28:10;;;;;;;27.25;6.40;;;7.30;99.90;;;;;;4999065;28;20386;-90
2023/02/04 08:30:36;;;;;;;34.55;6.75;;;7.40;99.90;;;;;;4998836;28;20034;-90
2023/02/04 08:33:03;;;;;;;39.55;8.45;;;7.40;99.90;;;;;;4999095;28;20084;-90
2023/02/04 08:35:29;;;;;;;30.52;8.27;;;7.40;99.90;;;;;;4998190;28;20054;-91
2023/02/04 08:37:55;;;;;;;37.15;7.75;;;7.50;99.90;;;;;;4982065;28;20096;-90
2023/02/04 08:40:21;;;;;;;35.67;7.45;;;7.50;99.90;;;;;;4996147;28;20057;-90
2023/02/04 08:42:49;;;;;;;38.08;7.93;;;7.50;99.90;;;;;;4979066;28;20038;-90
2023/02/04 08:45:15;;;;;;;30.23;7.22;;;7.60;99.90;;;;;;4994871;28;20042;-90
2023/02/04 08:47:41;;;;;;;34.70;8.43;;;7.60;99.90;;;;;;4995040;28;20447;-90
2023/02/04 08:50:09;;;;;;;31.80;7.32;;;7.60;99.90;;;;;;4994911;28;20026;-90
2023/02/04 08:52:35;;;;;;;31.90;8.02;;;7.60;99.90;;;;;;4978778;28;20065;-90
2023/02/04 08:55:01;;;;;;;44.17;8.95;;;7.60;99.90;;;;;;4995245;28;20026;-90
2023/02/04 08:57:26;;;;;;;32.28;6.82;;;7.70;99.90;;;;;;4978363;28;20031;-91
2023/02/04 08:59:52;;;;;;;28.27;6.72;;;7.70;99.90;;;;;;4994774;28;20042;-89
2023/02/04 09:05:40;;;;;;;29.90;6.68;;;7.70;99.90;;;;;;4995903;28;20088;-90
2023/02/04 09:08:05;;;;;;;29.40;7.78;;;7.80;99.90;;;;;;4978687;28;20046;-89
2023/02/04 09:10:32;;;;;;;38.17;8.07;;;7.80;99.90;;;;;;4994687;28;20476;-89
2023/02/04 09:12:58;;;;;;;32.45;7.85;;;7.80;99.90;;;;;;4962439;28;20030;-90
2023/02/04 09:15:24;;;;;;;34.47;7.18;;;7.80;99.90;;;;;;4994692;28;20093;-90
2023/02/04 09:18:00;;;;;;;33.17;6.78;;;7.90;99.90;;;;;;4978790;28;20042;-90
2023/02/04 09:20:26;;;;;;;29.08;7.00;;;7.90;99.90;;;;;;4994364;28;20042;-90
2023/02/04 09:23:07;;;;;;;34.45;7.45;;;8.00;99.90;;;;;;4978046;28;20061;-90
2023/02/04 09:25:33;;;;;;;34.97;7.32;;;8.00;99.90;;;;;;4995430;28;20034;-90
2023/02/04 09:28:00;;;;;;;30.83;7.15;;;8.10;99.90;;;;;;4994341;28;20034;-90
2023/02/04 09:30:26;;;;;;;32.30;8.20;;;8.10;99.90;;;;;;4995138;28;20031;-90
2023/02/04 09:32:51;;;;;;;32.35;7.50;;;8.20;99.90;;;;;;4978294;28;20038;-91
2023/02/04 09:35:17;;;;;;;35.55;8.43;;;8.20;99.90;;;;;;4994292;28;20030;-90
2023/02/04 09:37:43;;;;;;;37.45;7.30;;;8.30;99.90;;;;;;4994134;28;20065;-90
2023/02/04 09:40:19;;;;;;;44.45;8.23;;;8.30;99.90;;;;;;4977817;28;20053;-90
2023/02/04 09:42:50;;;;;;;39.28;7.47;;;8.30;99.90;;;;;;4997274;28;20114;-90
2023/02/04 09:45:20;;;;;;;33.97;7.60;;;8.40;99.90;;;;;;4995653;28;20030;-90
2023/02/04 09:47:46;;;;;;;34.47;5.97;;;8.40;99.90;;;;;;4994381;28;20034;-90
2023/02/04 09:50:15;;;;;;;31.98;6.53;;;8.40;99.90;;;;;;4978136;28;20137;-91
2023/02/04 09:52:41;;;;;;;31.98;6.35;;;8.40;99.90;;;;;;4993947;28;20097;-90
2023/02/04 09:55:15;;;;;;;37.60;7.68;;;8.40;99.90;;;;;;4977659;28;20041;-91
2023/02/04 09:57:41;;;;;;;34.92;5.65;;;8.50;99.90;;;;;;4993834;28;20061;-89
2023/02/04 10:00:16;;;;;;;33.80;7.05;;;8.50;99.90;;;;;;4993911;28;20058;-89
2023/02/04 10:02:48;;;;;;;35.10;5.93;;;8.50;99.90;;;;;;4993177;28;20042;-90
2023/02/04 10:05:20;;;;;;;37.22;6.60;;;8.60;99.90;;;;;;4978070;28;20069;-90
2023/02/04 10:07:46;;;;;;;33.63;7.00;;;8.60;99.90;;;;;;4994114;28;20129;-89
2023/02/04 10:10:18;;;;;;;36.67;7.45;;;8.70;99.90;;;;;;4977791;28;20426;-89
2023/02/04 10:12:46;;;;;;;39.40;6.65;;;8.70;99.90;;;;;;4998504;28;20502;-89
2023/02/04 10:15:20;;;;;;;34.25;6.18;;;8.80;99.90;;;;;;4997769;28;20041;-90
2023/02/04 10:17:56;;;;;;;33.40;7.85;;;8.80;99.90;;;;;;4981501;28;20035;-89
2023/02/04 10:20:28;;;;;;;30.77;5.95;;;8.80;99.90;;;;;;4997862;28;20502;-90
2023/02/04 10:23:01;;;;;;;40.75;7.93;;;8.90;99.90;;;;;;4997668;28;20125;-90
2023/02/04 10:25:27;;;;;;;37.92;7.10;;;8.90;99.90;;;;;;4983229;28;20042;-90
2023/02/04 10:27:58;;;;;;;38.63;5.70;;;9.00;99.90;;;;;;4981882;28;20038;-90
2023/02/04 10:30:34;;;;;;;36.88;7.05;;;9.00;99.90;;;;;;4997324;28;20030;-90
2023/02/04 10:33:21;;;;;;;37.92;7.72;;;9.10;99.90;;;;;;4997104;28;20440;-90
2023/02/04 10:35:49;;;;;;;41.22;7.15;;;9.10;99.90;;;;;;4996898;28;20038;-90
2023/02/04 10:38:15;;;;;;;39.00;6.75;;;9.10;99.90;;;;;;4997796;28;20030;-90
2023/02/04 10:40:41;;;;;;;32.65;5.95;;;9.20;99.90;;;;;;4996646;28;20120;-90
2023/02/04 10:43:17;;;;;;;33.55;6.97;;;9.20;99.90;;;;;;4980989;28;20035;-90
2023/02/04 10:45:46;;;;;;;38.95;8.82;;;9.30;99.90;;;;;;4996744;28;20081;-90
2023/02/04 10:48:18;;;;;;;38.15;5.80;;;9.30;99.90;;;;;;4981030;28;20034;-88
2023/02/04 10:50:46;;;;;;;32.67;6.32;;;9.40;99.90;;;;;;4996845;28;20499;-88
2023/02/04 10:56:01;;;;;;;36.60;7.57;;;9.50;99.90;;;;;;4998662;28;20050;-90
2023/02/04 10:58:29;;;;;;;35.47;6.15;;;9.50;99.90;;;;;;4996630;28;20023;-90
2023/02/04 11:00:54;;;;;;;36.45;7.38;;;9.60;99.90;;;;;;4980269;28;20138;-90
2023/02/04 11:03:26;;;;;;;32.42;5.93;;;9.60;99.90;;;;;;4980549;28;20069;-89
2023/02/04 11:05:56;;;;;;;33.63;5.93;;;9.60;99.90;;;;;;4997243;28;20055;-89
2023/02/04 11:08:27;;;;;;;34.73;6.87;;;9.70;99.90;;;;;;4997898;28;20058;-90
2023/02/04 11:10:59;;;;;;;36.95;6.32;;;9.70;99.90;;;;;;4996736;28;20035;-88
2023/02/04 11:13:48;;;;;;;34.05;6.03;;;9.70;99.90;;;;;;4996174;28;20035;-89
2023/02/04 11:16:16;;;;;;;45.28;7.32;;;9.70;99.90;;;;;;4997497;28;20026;-90
2023/02/04 11:18:43;;;;;;;36.45;5.70;;;9.70;99.90;;;;;;4996496;28;20038;-90
2023/02/04 11:21:21;;;;;;;29.23;6.13;;;9.70;99.90;;;;;;4996445;28;20125;-90
2023/02/04 11:23:47;;;;;;;36.05;5.70;;;9.70;99.90;;;;;;4996012;28;20105;-91
2023/02/04 11:26:19;;;;;;;31.00;5.20;;;9.80;99.90;;;;;;4996481;28;20032;-90
2023/02/04 11:28:44;;;;;;;;;;;9.80;99.90;;;;;;4997472;28;20042;-91
2023/02/04 11:31:24;;;;;;;29.02;4.97;;;9.80;99.90;;;;;;4996126;28;20438;-90
2023/02/04 11:34:05;;;;;;;33.53;5.00;;;9.90;99.90;;;;;;4996080;28;20121;-90
2023/02/04 11:36:31;;;;;;;35.80;4.93;;;9.90;99.90;;;;;;4996481;28;20068;-90
2023/02/04 11:39:05;;;;;;;32.15;4.47;;;10.00;99.90;;;;;;4980011;28;20384;-91
2023/02/04 11:41:32;;;;;;;34.30;4.88;;;10.00;99.90;;;;;;4980890;28;20054;-90
2023/02/04 11:43:58;;;;;;;30.92;5.13;;;10.10;99.90;;;;;;4979843;28;20510;-90
2023/02/04 11:46:27;;;;;;;27.90;4.15;;;10.10;99.90;;;;;;4963165;28;20034;-90
2023/02/04 11:48:59;;;;;;;36.55;5.65;;;10.20;99.90;;;;;;4995325;28;20039;-90
2023/02/04 11:51:31;;;;;;;33.72;6.10;;;10.30;99.90;;;;;;4997006;28;20042;-90
2023/02/04 11:53:57;;;;;;;42.30;6.57;;;10.30;99.90;;;;;;4995445;28;20435;-90
2023/02/04 11:56:26;;;;;;;35.75;5.25;;;10.40;99.90;;;;;;4981940;28;20034;-89
2023/02/04 11:58:56;;;;;;;38.58;5.68;;;10.40;99.90;;;;;;4995012;28;20034;-90
2023/02/04 12:01:32;;;;;;;31.45;5.35;;;10.40;99.90;;;;;;4995411;28;20056;-90
2023/02/04 12:04:03;;;;;;;33.08;6.28;;;10.50;99.90;;;;;;4995522;28;20042;-90
2023/02/04 12:06:35;;;;;;;36.35;6.13;;;10.50;99.90;;;;;;4995498;28;20035;-90
2023/02/04 12:09:31;;;;;;;33.15;5.72;;;10.60;99.90;;;;;;4995437;28;20034;-90
2023/02/04 12:12:03;;;;;;;30.63;4.80;;;10.60;99.90;;;;;;4993234;28;20034;-89
2023/02/04 12:14:55;;;;;;;28.65;5.05;;;10.60;99.90;;;;;;4978932;28;20447;-89
2023/02/04 12:17:24;;;;;;;33.28;5.88;;;10.70;99.90;;;;;;5000660;28;20045;-89
2023/02/04 12:19:50;;;;;;;25.25;5.00;;;10.70;99.90;;;;;;4994676;28;20030;-89
2023/02/04 12:22:22;;;;;;;27.55;4.57;;;10.80;99.90;;;;;;4963075;28;20061;-90
2023/02/04 12:24:47;;;;;;;25.20;4.45;;;10.90;99.90;;;;;;4963373;28;20559;-90
2023/02/04 12:27:13;;;;;;;29.00;5.32;;;10.90;99.90;;;;;;4994845;28;20146;-90
2023/02/04 12:29:39;;;;;;;26.83;5.50;;;11.00;99.90;;;;;;4995311;28;20044;-91
2023/02/04 12:32:05;;;;;;;33.05;5.90;;;11.10;99.90;;;;;;4978656;28;20396;-91
2023/02/04 12:34:30;;;;;;;29.23;4.85;;;11.10;99.90;;;;;;4979294;28;20117;-91
2023/02/04 12:36:56;;;;;;;30.38;4.30;;;11.20;99.90;;;;;;4962851;28;20085;-91
2023/02/04 12:39:22;;;;;;;28.65;5.38;;;11.20;99.90;;;;;;4962479;28;20092;-90
2023/02/04 12:41:50;;;;;;;29.73;4.50;;;11.20;99.90;;;;;;4994394;28;20053;-91
2023/02/04 12:44:16;;;;;;;27.73;5.32;;;11.20;99.90;;;;;;4980140;28;20093;-89
2023/02/04 12:46:41;;;;;;;38.08;5.30;;;11.30;99.90;;;;;;4978441;28;20050;-90
2023/02/04 12:49:07;;;;;;;33.00;4.85;;;11.30;99.90;;;;;;4978423;28;20496;-90
2023/02/04 12:51:33;;;;;;;35.22;5.55;;;11.30;99.90;;;;;;4978224;28;20061;-90